This is the latest recevied weather packets stored in our database for station/object KY4GW. If no packets are shown the sender has not sent any weather packets the latest 10 day(s).
| Time | Temp. | Humidity | Pressure | Rain* | Wind** | Luminosity | Snow |
|---|---|---|---|---|---|---|---|
| 1777737544 | 12.78° C | 53% | 1020.7 hPa | 0 mm | - | 296 W/m² | - |
| 1777737241 | 12.22° C | 52% | 1020.7 hPa | 0 mm | - | 453 W/m² | - |
| 1777736937 | 11.67° C | 52% | 1020.7 hPa | 0 mm | - | 837 W/m² | - |
| 1777735728 | 12.22° C | 49% | 1020.7 hPa | 0 mm | - | 790 W/m² | - |
| 1777735426 | 11.67° C | 52% | 1020.7 hPa | 0 mm | - | 756 W/m² | - |
| 1777735123 | 11.67° C | 51% | 1020.7 hPa | 0 mm | - | 737 W/m² | - |
| 1777734820 | 11.11° C | 54% | 1021.1 hPa | 0 mm | - | 706 W/m² | - |
| 1777734517 | 11.11° C | 53% | 1021.1 hPa | 0 mm | - | 692 W/m² | - |
| 1777733910 | 11.11° C | 52% | 1021.1 hPa | 0 mm | - | 668 W/m² | - |
| 1777732696 | 11.11° C | 52% | 1020.7 hPa | 0 mm | - | 566 W/m² | - |
| 1777732394 | 10.56° C | 53% | 1020.7 hPa | 0 mm | - | 640 W/m² | - |
| 1777732091 | 10.56° C | 51% | 1020.7 hPa | 0 mm | - | 586 W/m² | - |
| 1777731788 | 10° C | 54% | 1020.7 hPa | 0 mm | - | 344 W/m² | - |
| 1777731485 | 10.56° C | 52% | 1020.7 hPa | 0 mm | - | 517 W/m² | - |
| 1777731183 | 10.56° C | 52% | 1020.7 hPa | 0 mm | - | 546 W/m² | - |
| 1777730880 | 10.56° C | 52% | 1020.7 hPa | 0 mm | - | 520 W/m² | - |
| 1777730578 | 10° C | 55% | 1020.7 hPa | 0 mm | - | 497 W/m² | - |
| 1777730274 | 9.44° C | 55% | 1020.7 hPa | 0 mm | - | 474 W/m² | - |
| 1777729970 | 9.44° C | 55% | 1020.7 hPa | 0 mm | - | 477 W/m² | - |
| 1777729666 | 9.44° C | 55% | 1020.7 hPa | 0 mm | - | 434 W/m² | - |
| 1777729364 | 9.44° C | 55% | 1020.7 hPa | 0 mm | - | 434 W/m² | - |
| 1777729060 | 8.89° C | 56% | 1020.7 hPa | 0 mm | - | 331 W/m² | - |
| 1777728757 | 8.89° C | 58% | 1020.7 hPa | 0 mm | - | 388 W/m² | - |
| 1777728453 | 8.33° C | 59% | 1020.7 hPa | 0 mm | - | 375 W/m² | - |
| 1777728151 | 8.89° C | 58% | 1020.7 hPa | 0 mm | - | 301 W/m² | - |
* Rain latest hour (hover to see other rain measurements)
** Current wind speed in m/s (hover to see current wind gust speed)